Schedule Details


Flight Number: CTN300
Departure: Cilipi (LDDU) at 16:30
Arrival: Eleftherios Venizelos Intl (LGAV) at 19:00
Route: MADOS L187 DBK UL607 XORKI

Weather Information
LDDU 112130Z 09007KT CAVOK 18/13 Q1011
LGAV 112120Z VRB03KT CAVOK 13/01 Q1014 NOSIG
Schedule Frequency

Route Map